createdAt,value
2022-08-07T00:00:39.973Z,65.97
2022-08-07T00:03:08.750Z,65.95
2022-08-07T00:05:37.263Z,65.17
2022-08-07T00:08:05.516Z,64.55
2022-08-07T00:10:35.997Z,64.81
2022-08-07T00:13:23.676Z,64.12
2022-08-07T00:15:55.231Z,63.26
2022-08-07T00:18:25.116Z,63.95
2022-08-07T00:20:54.425Z,63.87
2022-08-07T00:23:22.598Z,63.47
2022-08-07T00:25:52.144Z,62.78
2022-08-07T00:28:33.582Z,62.67
2022-08-07T00:31:12.823Z,62.71
2022-08-07T00:33:47.610Z,63.19
2022-08-07T00:36:16.915Z,63.39
2022-08-07T00:38:44.889Z,62.71
2022-08-07T00:41:14.696Z,63.05
2022-08-07T00:43:59.639Z,63.11
2022-08-07T00:46:33.220Z,62.07
2022-08-07T00:49:03.075Z,61.72
2022-08-07T00:51:58.525Z,61.32
2022-08-07T00:54:20.062Z,61.07
2022-08-07T00:56:49.946Z,61.78
2022-08-07T00:59:18.007Z,61.85
2022-08-07T01:01:50.814Z,61.44
2022-08-07T01:04:25.853Z,60.91
2022-08-07T01:06:58.186Z,60.28
2022-08-07T01:09:35.680Z,60.67
2022-08-07T01:12:29.954Z,60.59
2022-08-07T01:15:01.693Z,59.85
2022-08-07T01:17:34.031Z,60.68
2022-08-07T01:20:08.872Z,61.08
2022-08-07T01:22:46.576Z,61.55
2022-08-07T01:25:39.873Z,61.86
2022-08-07T01:28:03.960Z,62.56
2022-08-07T01:30:33.331Z,62.36
2022-08-07T01:33:02.295Z,62.10
2022-08-07T01:35:52.563Z,62.09
2022-08-07T01:38:25.637Z,62.53
2022-08-07T01:40:56.350Z,63.14
2022-08-07T01:43:25.940Z,63.31
2022-08-07T01:45:54.754Z,63.63
2022-08-07T01:48:30.761Z,63.43
2022-08-07T01:51:24.708Z,64.13
2022-08-07T01:54:12.097Z,64.33
2022-08-07T01:56:49.430Z,64.19
2022-08-07T01:59:23.625Z,64.62
2022-08-07T02:02:04.325Z,63.76
2022-08-07T02:04:55.743Z,64.13
2022-08-07T02:07:36.123Z,64.40
2022-08-07T02:10:19.900Z,65.37
2022-08-07T02:12:50.505Z,65.21
2022-08-07T02:15:23.156Z,64.55
2022-08-07T02:17:56.492Z,64.65
2022-08-07T02:20:25.644Z,64.93
2022-08-07T02:22:57.570Z,64.20
2022-08-07T02:26:10.110Z,65.04
2022-08-07T02:28:25.388Z,64.75
2022-08-07T02:30:54.763Z,65.00
2022-08-07T02:33:24.694Z,65.46
2022-08-07T02:36:28.441Z,64.63
2022-08-07T02:38:56.708Z,64.67
2022-08-07T02:41:33.606Z,64.89
2022-08-07T02:44:06.057Z,65.13
2022-08-07T02:46:36.904Z,65.48
2022-08-07T02:49:05.466Z,65.85
2022-08-07T02:51:42.492Z,65.90
2022-08-07T02:54:21.318Z,65.95
2022-08-07T02:56:55.888Z,64.66
2022-08-07T02:59:28.312Z,65.46
2022-08-07T03:02:01.113Z,66.07
2022-08-07T03:04:31.586Z,66.16
2022-08-07T03:07:07.104Z,66.68
2022-08-07T03:09:44.659Z,66.27
2022-08-07T03:12:22.651Z,66.88
2022-08-07T03:15:02.226Z,67.37
2022-08-07T03:17:52.743Z,67.21
2022-08-07T03:20:21.290Z,67.01
2022-08-07T03:22:50.920Z,67.00
2022-08-07T03:25:20.908Z,66.78
2022-08-07T03:27:59.345Z,67.15
2022-08-07T03:30:39.393Z,67.07
2022-08-07T03:33:10.582Z,67.19
2022-08-07T03:35:44.175Z,67.30
2022-08-07T03:38:20.967Z,66.30
2022-08-07T03:40:57.467Z,66.53
2022-08-07T03:43:32.288Z,66.81
2022-08-07T03:46:02.759Z,66.14
2022-08-07T03:48:32.983Z,66.11
2022-08-07T03:51:01.632Z,66.30
2022-08-07T03:54:02.103Z,65.83
2022-08-07T03:56:32.725Z,65.95
2022-08-07T03:59:09.551Z,66.42
2022-08-07T04:01:45.514Z,66.61
2022-08-07T04:04:17.421Z,66.39
2022-08-07T04:06:45.691Z,66.04
2022-08-07T04:09:15.881Z,65.45
2022-08-07T04:12:24.393Z,64.95
2022-08-07T04:14:38.542Z,65.17
2022-08-07T04:17:20.455Z,65.91
2022-08-07T04:20:01.259Z,66.11
2022-08-07T04:22:30.000Z,65.76
2022-08-07T04:25:00.974Z,66.25
2022-08-07T04:27:35.830Z,65.25
2022-08-07T04:30:21.477Z,65.81
2022-08-07T04:33:02.590Z,65.47
2022-08-07T04:35:35.766Z,65.07
2022-08-07T04:38:07.853Z,65.55
2022-08-07T04:40:36.604Z,65.62
2022-08-07T04:43:22.120Z,65.36
2022-08-07T04:46:26.039Z,65.64
2022-08-07T04:49:18.358Z,65.78
2022-08-07T04:52:01.503Z,65.68
2022-08-07T04:54:35.775Z,65.59
2022-08-07T04:58:12.545Z,65.61
2022-08-07T05:00:11.845Z,65.93
2022-08-07T05:02:57.895Z,66.00
2022-08-07T05:05:52.791Z,65.85
2022-08-07T05:08:59.713Z,65.86
2022-08-07T05:11:19.759Z,65.60
2022-08-07T05:14:54.220Z,65.83
2022-08-07T05:16:53.005Z,65.23
2022-08-07T05:19:44.005Z,65.53
2022-08-07T05:22:19.027Z,65.79
2022-08-07T05:24:59.508Z,65.66
2022-08-07T05:28:03.029Z,65.32
2022-08-07T05:30:29.926Z,64.37
2022-08-07T05:33:03.342Z,64.79
2022-08-07T05:35:41.586Z,64.27
2022-08-07T05:38:10.971Z,64.30
2022-08-07T05:40:42.783Z,64.31
2022-08-07T05:43:19.833Z,64.28
2022-08-07T05:46:08.139Z,64.12
2022-08-07T05:48:36.485Z,64.27
2022-08-07T05:51:31.814Z,64.12
2022-08-07T05:54:12.140Z,63.73
2022-08-07T05:56:51.419Z,63.67
2022-08-07T05:59:22.038Z,63.56
2022-08-07T06:01:51.591Z,63.33
2022-08-07T06:04:22.436Z,62.73
2022-08-07T06:07:04.415Z,62.41
2022-08-07T06:09:44.918Z,62.07
2022-08-07T06:12:31.767Z,61.92
2022-08-07T06:15:05.563Z,61.82
2022-08-07T06:17:37.578Z,61.61
2022-08-07T06:20:12.776Z,61.67
2022-08-07T06:23:02.188Z,61.58
2022-08-07T06:25:54.712Z,61.42
2022-08-07T06:28:27.689Z,61.41
2022-08-07T06:30:58.299Z,60.45
2022-08-07T06:33:27.220Z,60.38
2022-08-07T06:36:12.918Z,60.30
2022-08-07T06:38:51.669Z,59.28
2022-08-07T06:42:00.879Z,59.64
2022-08-07T06:44:26.122Z,59.41
2022-08-07T06:47:09.812Z,59.57
2022-08-07T06:49:50.752Z,59.51
2022-08-07T06:52:31.419Z,59.49
2022-08-07T06:55:33.101Z,59.25
2022-08-07T06:57:58.318Z,58.46
2022-08-07T07:00:28.300Z,58.83
2022-08-07T07:03:00.918Z,58.85
2022-08-07T07:06:03.307Z,59.00
2022-08-07T07:08:27.683Z,58.84
2022-08-07T07:10:57.864Z,58.01
2022-08-07T07:13:55.985Z,58.12
2022-08-07T07:16:27.509Z,58.46
2022-08-07T07:19:00.745Z,57.39
2022-08-07T07:22:04.812Z,57.08
2022-08-07T07:24:32.295Z,57.26
2022-08-07T07:27:04.391Z,57.57
2022-08-07T07:29:57.196Z,57.51
2022-08-07T07:32:26.164Z,57.18
2022-08-07T07:34:57.828Z,56.73
2022-08-07T07:37:47.323Z,56.71
2022-08-07T07:40:21.479Z,56.81
2022-08-07T07:42:58.596Z,57.11
2022-08-07T07:46:37.035Z,56.67
2022-08-07T07:48:35.699Z,56.62
2022-08-07T07:51:08.152Z,56.53
2022-08-07T07:53:51.849Z,55.63
2022-08-07T07:56:30.036Z,54.19
2022-08-07T07:59:02.134Z,52.02
2022-08-07T08:02:03.775Z,51.11
2022-08-07T08:04:25.842Z,51.86
2022-08-07T08:06:56.460Z,52.02
2022-08-07T08:09:30.695Z,52.51
2022-08-07T08:12:50.128Z,52.87
2022-08-07T08:15:09.993Z,52.95
2022-08-07T08:17:57.160Z,52.99
2022-08-07T08:20:32.127Z,53.33
2022-08-07T08:23:18.372Z,52.92
2022-08-07T08:26:10.269Z,52.33
2022-08-07T08:28:43.375Z,51.87
2022-08-07T08:31:30.151Z,51.79
2022-08-07T08:34:09.767Z,52.00
2022-08-07T08:36:46.145Z,51.94
2022-08-07T08:39:15.349Z,51.30
2022-08-07T08:41:57.556Z,51.04
2022-08-07T08:44:33.168Z,51.57
2022-08-07T08:47:09.818Z,50.89
2022-08-07T08:50:02.239Z,50.61
2022-08-07T08:52:40.775Z,50.97
2022-08-07T08:55:55.238Z,49.21
2022-08-07T08:58:28.407Z,50.53
2022-08-07T09:01:15.304Z,50.59
2022-08-07T09:03:53.251Z,50.63
2022-08-07T09:06:47.853Z,50.26
2022-08-07T09:09:36.538Z,50.82
2022-08-07T09:12:30.606Z,50.35
2022-08-07T09:16:23.336Z,49.99
2022-08-07T09:18:22.285Z,49.58
2022-08-07T09:21:06.888Z,49.64
2022-08-07T09:24:31.665Z,48.49
2022-08-07T09:26:57.002Z,48.96
2022-08-07T09:30:03.991Z,48.54
2022-08-07T09:32:38.792Z,47.44
2022-08-07T09:36:03.026Z,48.25
2022-08-07T09:38:17.958Z,49.26
2022-08-07T09:41:01.338Z,48.79
2022-08-07T09:44:05.569Z,48.55
2022-08-07T09:47:49.767Z,48.33
2022-08-07T09:50:02.859Z,49.08
2022-08-07T09:52:51.899Z,48.92
2022-08-07T09:55:29.590Z,48.72
2022-08-07T09:58:32.279Z,48.78
2022-08-07T10:01:51.200Z,48.50
2022-08-07T10:04:32.896Z,48.96
2022-08-07T10:07:24.144Z,48.99
2022-08-07T10:10:22.899Z,49.27
2022-08-07T10:16:29.611Z,48.21
2022-08-07T10:19:25.178Z,47.42
2022-08-07T10:22:15.636Z,48.53
2022-08-07T10:24:55.204Z,48.13
2022-08-07T10:27:46.598Z,47.90
2022-08-07T10:40:48.481Z,47.60
2022-08-07T10:43:34.173Z,48.08
2022-08-07T10:46:10.333Z,46.98
2022-08-07T10:48:48.575Z,45.71
2022-08-07T10:51:57.395Z,47.44
2022-08-07T10:54:27.142Z,46.95
2022-08-07T10:57:11.497Z,47.54
2022-08-07T11:00:03.348Z,46.86
2022-08-07T11:02:40.251Z,47.86
2022-08-07T11:05:20.009Z,46.46
2022-08-07T11:08:03.517Z,47.76
2022-08-07T11:10:39.235Z,46.36
2022-08-07T11:14:42.272Z,46.24
2022-08-07T11:16:07.512Z,45.14
2022-08-07T11:18:42.408Z,44.67
2022-08-07T11:21:15.951Z,45.33
2022-08-07T11:23:53.799Z,45.84
2022-08-07T11:26:28.158Z,44.57
2022-08-07T11:29:05.731Z,45.08
2022-08-07T11:31:47.834Z,45.80
2022-08-07T11:34:29.548Z,45.93
2022-08-07T11:37:06.689Z,46.39
2022-08-07T11:40:01.060Z,46.36
2022-08-07T11:42:40.824Z,46.13
2022-08-07T11:45:20.693Z,46.10
2022-08-07T11:48:13.837Z,46.21
2022-08-07T11:51:01.506Z,46.03
2022-08-07T11:57:20.563Z,46.76
2022-08-07T13:37:29.182Z,44.47
2022-08-07T13:40:35.354Z,43.00
2022-08-07T13:43:11.941Z,42.89
2022-08-07T13:46:12.413Z,42.95
2022-08-07T13:48:34.716Z,43.17
2022-08-07T13:51:27.737Z,43.09
2022-08-07T13:54:01.620Z,42.06
2022-08-07T13:56:35.548Z,42.88
2022-08-07T13:59:13.021Z,42.86
2022-08-07T14:01:59.259Z,43.29
2022-08-07T14:04:35.724Z,43.00
2022-08-07T14:07:09.425Z,42.25
2022-08-07T14:10:02.191Z,43.18
2022-08-07T14:12:41.566Z,42.87
2022-08-07T14:15:18.560Z,41.05
2022-08-07T14:18:24.187Z,40.28
2022-08-07T14:20:42.806Z,40.95
2022-08-07T14:23:31.580Z,40.92
2022-08-07T14:26:28.638Z,41.42
2022-08-07T14:29:05.928Z,41.38
2022-08-07T14:31:53.439Z,39.32
2022-08-07T14:34:29.716Z,40.22
2022-08-07T14:37:01.604Z,40.22
2022-08-07T14:40:17.800Z,39.93
2022-08-07T14:42:27.606Z,39.89
2022-08-07T14:45:21.934Z,40.19
2022-08-07T14:47:58.512Z,40.21
2022-08-07T14:50:37.520Z,39.09
2022-08-07T14:53:09.668Z,39.61
2022-08-07T14:58:32.699Z,40.67
2022-08-07T15:04:12.399Z,39.84
2022-08-07T15:06:40.591Z,39.61
2022-08-07T15:12:08.835Z,39.56
2022-08-07T15:17:33.056Z,40.04
2022-08-07T15:20:32.723Z,40.95
2022-08-07T15:28:35.039Z,41.13
2022-08-07T15:31:12.231Z,40.89
2022-08-07T15:34:01.257Z,41.06
2022-08-07T15:37:02.942Z,40.64
2022-08-07T15:39:16.223Z,41.20
2022-08-07T15:42:44.540Z,40.43
2022-08-07T15:47:59.899Z,40.01
2022-08-07T15:53:51.574Z,41.40
2022-08-07T15:56:16.994Z,40.83
2022-08-07T15:58:52.165Z,41.75
2022-08-07T16:01:38.802Z,41.40
2022-08-07T16:04:14.529Z,41.16
2022-08-07T16:06:49.940Z,41.24
2022-08-07T16:09:23.163Z,40.88
2022-08-07T16:12:04.467Z,41.51
2022-08-07T16:14:50.158Z,42.06
2022-08-07T16:18:02.470Z,41.38
2022-08-07T16:20:55.146Z,41.62
2022-08-07T16:23:58.841Z,42.13
2022-08-07T16:26:59.258Z,42.13
2022-08-07T16:30:11.264Z,41.37
2022-08-07T16:32:46.503Z,41.58
2022-08-07T16:35:51.471Z,42.12
2022-08-07T16:38:59.930Z,42.83
2022-08-07T16:41:53.978Z,42.89
2022-08-07T16:44:57.245Z,43.34
2022-08-07T16:47:56.887Z,43.22
2022-08-07T16:50:52.644Z,42.85
2022-08-07T16:54:02.226Z,43.57
2022-08-07T16:56:50.124Z,43.49
2022-08-07T16:59:46.566Z,44.12
2022-08-07T17:02:52.366Z,43.90
2022-08-07T17:06:18.945Z,43.98
2022-08-07T17:09:08.835Z,44.38
2022-08-07T17:12:05.360Z,44.48
2022-08-07T17:14:33.632Z,43.89
2022-08-07T17:17:07.405Z,44.22
2022-08-07T17:20:02.512Z,44.49
2022-08-07T17:22:37.995Z,44.27
2022-08-07T17:25:11.730Z,44.59
2022-08-07T17:27:51.758Z,44.54
2022-08-07T17:30:26.631Z,43.42
2022-08-07T17:34:08.496Z,44.29
2022-08-07T17:36:00.464Z,43.27
2022-08-07T17:38:35.484Z,44.23
2022-08-07T17:42:02.664Z,44.25
2022-08-07T17:44:05.914Z,43.89
2022-08-07T17:46:44.385Z,44.65
2022-08-07T17:49:24.460Z,44.16
2022-08-07T17:52:00.710Z,44.50
2022-08-07T17:54:54.022Z,45.00
2022-08-07T17:57:56.095Z,45.11
2022-08-07T18:00:33.304Z,44.67
2022-08-07T18:03:18.553Z,44.17
2022-08-07T18:06:03.489Z,45.03
2022-08-07T18:09:01.121Z,45.34
2022-08-07T18:12:06.877Z,45.64
2022-08-07T18:14:37.323Z,45.95
2022-08-07T18:17:11.098Z,46.25
2022-08-07T18:21:09.617Z,45.81
2022-08-07T18:22:40.205Z,45.54
2022-08-07T18:25:19.137Z,44.80
2022-08-07T18:28:34.166Z,45.96
2022-08-07T18:31:05.439Z,46.34
2022-08-07T18:34:04.969Z,45.95
2022-08-07T18:37:09.237Z,46.13
2022-08-07T18:40:06.518Z,45.90
2022-08-07T18:42:44.136Z,46.23
2022-08-07T18:45:43.341Z,46.12
2022-08-07T18:48:10.156Z,47.22
2022-08-07T18:51:09.687Z,47.18
2022-08-07T18:53:57.701Z,47.63
2022-08-07T18:56:35.824Z,47.54
2022-08-07T18:59:48.004Z,47.74
2022-08-07T19:02:42.183Z,47.71
2022-08-07T19:05:21.303Z,46.84
2022-08-07T19:07:59.287Z,47.66
2022-08-07T19:10:49.832Z,47.40
2022-08-07T19:13:27.420Z,47.48
2022-08-07T19:16:04.353Z,47.63
2022-08-07T19:18:59.294Z,47.74
2022-08-07T19:21:51.305Z,47.90
2022-08-07T19:24:30.855Z,48.19
2022-08-07T19:28:30.305Z,48.28
2022-08-07T19:31:01.228Z,48.63
2022-08-07T19:32:46.376Z,48.29
2022-08-07T19:35:22.370Z,47.97
2022-08-07T19:37:57.827Z,48.12
2022-08-07T19:40:31.755Z,48.64
2022-08-07T19:43:10.629Z,48.47
2022-08-07T19:46:09.474Z,48.95
2022-08-07T19:48:43.642Z,49.42
2022-08-07T19:51:20.251Z,49.20
2022-08-07T19:54:32.175Z,49.22
2022-08-07T19:57:51.656Z,49.24
2022-08-07T19:59:41.159Z,48.88
2022-08-07T20:02:19.692Z,49.08
2022-08-07T20:04:51.866Z,49.39
2022-08-07T20:07:47.637Z,49.65
2022-08-07T20:10:37.332Z,50.17
2022-08-07T20:13:22.366Z,50.06
2022-08-07T20:15:51.119Z,50.00
2022-08-07T20:18:32.841Z,49.94
2022-08-07T20:21:21.063Z,50.02
2022-08-07T20:23:57.982Z,49.15
2022-08-07T20:26:38.514Z,48.70
2022-08-07T20:29:47.051Z,48.97
2022-08-07T20:32:00.629Z,49.18
2022-08-07T20:34:49.237Z,49.76
2022-08-07T20:37:24.163Z,50.45
2022-08-07T20:40:04.058Z,50.37
2022-08-07T20:42:35.308Z,50.30
2022-08-07T20:45:33.419Z,50.23
2022-08-07T20:47:58.288Z,50.49
2022-08-07T20:50:31.666Z,50.45
2022-08-07T20:53:00.255Z,50.70
2022-08-07T20:55:31.972Z,50.27
2022-08-07T20:58:03.880Z,49.99
2022-08-07T21:00:42.638Z,49.77
2022-08-07T21:03:15.200Z,49.28
2022-08-07T21:05:54.937Z,49.45
2022-08-07T21:08:36.910Z,50.38
2022-08-07T21:11:12.261Z,50.61
2022-08-07T21:14:16.665Z,50.58
2022-08-07T21:16:55.896Z,49.64
2022-08-07T21:19:31.886Z,50.46
2022-08-07T21:22:05.211Z,50.16
2022-08-07T21:24:48.081Z,50.14
2022-08-07T21:27:25.651Z,50.19
2022-08-07T21:30:01.225Z,50.23
2022-08-07T21:32:46.756Z,50.16
2022-08-07T21:36:04.216Z,50.08
2022-08-07T21:38:21.551Z,49.81
2022-08-07T21:41:01.846Z,49.80
2022-08-07T21:43:55.567Z,50.15
2022-08-07T21:46:31.829Z,49.89
2022-08-07T21:49:14.578Z,50.46
2022-08-07T21:51:59.383Z,50.52
2022-08-07T21:54:37.415Z,50.64
2022-08-07T21:57:39.452Z,50.59
2022-08-07T22:00:22.750Z,49.75
2022-08-07T22:03:00.058Z,49.92
2022-08-07T22:05:45.333Z,49.71
2022-08-07T22:08:18.902Z,49.92
2022-08-07T22:10:50.728Z,50.00
2022-08-07T22:13:24.656Z,50.75
2022-08-07T22:16:43.462Z,50.66
2022-08-07T22:19:08.172Z,50.46
2022-08-07T22:22:01.742Z,50.48
2022-08-07T22:24:37.701Z,50.00
2022-08-07T22:27:13.605Z,50.12
2022-08-07T22:29:49.592Z,49.82
2022-08-07T22:32:25.340Z,49.63
2022-08-07T22:34:55.372Z,49.64
2022-08-07T22:38:02.954Z,50.14
2022-08-07T22:40:30.710Z,49.97
2022-08-07T22:43:06.250Z,50.25
2022-08-07T22:46:21.185Z,50.83
2022-08-07T22:49:06.688Z,50.94
2022-08-07T22:51:51.989Z,51.28
2022-08-07T22:54:52.275Z,50.93
2022-08-07T22:57:45.667Z,51.07
2022-08-07T23:00:18.871Z,50.42
2022-08-07T23:03:03.572Z,50.09
2022-08-07T23:06:06.874Z,50.30
2022-08-07T23:08:54.535Z,50.02
2022-08-07T23:11:41.233Z,49.64
2022-08-07T23:14:27.900Z,49.76
2022-08-07T23:17:21.653Z,49.67
2022-08-07T23:20:18.732Z,49.58
2022-08-07T23:23:00.909Z,50.19
2022-08-07T23:25:38.946Z,49.95
2022-08-07T23:28:29.388Z,50.36
2022-08-07T23:31:18.811Z,50.69
2022-08-07T23:34:37.605Z,50.53
2022-08-07T23:37:33.599Z,50.23
2022-08-07T23:40:15.685Z,49.88
2022-08-07T23:43:01.810Z,49.58
2022-08-07T23:46:03.328Z,49.24
2022-08-07T23:48:41.792Z,49.73
2022-08-07T23:53:01.866Z,49.94
2022-08-07T23:54:36.106Z,49.26
2022-08-07T23:57:22.199Z,49.28
